Time;durP1;ratioP1;P1;durP2;ratioP2;P2;SDS_P1;SDS_P2;PMS_P1;PMS_P2;Temp;Humidity;BMP_temperature;BMP_pressure;BME280_temperature;BME280_humidity;BME280_pressure;Samples;Min_cycle;Max_cycle;Signal;HPM_P1;HPM_P2
2023/10/13 00:02:29;;;;;;;5.88;4.05;;;;;;;;;;10436386;28;20210;-77
2023/10/13 00:07:30;;;;;;;5.95;4.00;;;;;;;;;;10431892;28;20224;-77
2023/10/13 00:12:31;;;;;;;8.63;5.72;;;;;;;;;;10394961;28;20728;-77
2023/10/13 00:17:32;;;;;;;4.65;3.67;;;;;;;;;;10415656;28;20298;-76
2023/10/13 00:22:35;;;;;;;5.70;4.28;;;;;;;;;;10415641;28;20225;-76
2023/10/13 00:27:41;;;;;;;6.70;4.60;;;;;;;;;;10415100;28;20250;-77
2023/10/13 00:32:43;;;;;;;7.57;4.78;;;;;;;;;;10421705;28;20341;-74
2023/10/13 00:37:44;;;;;;;13.50;5.45;;;;;;;;;;10397104;28;20227;-77
2023/10/13 00:42:52;;;;;;;5.63;5.03;;;;;;;;;;10403556;28;20237;-76
2023/10/13 00:47:56;;;;;;;4.95;4.15;;;;;;;;;;10392748;28;20217;-76
2023/10/13 00:52:58;;;;;;;7.25;4.80;;;;;;;;;;10408788;28;20230;-79
2023/10/13 00:58:03;;;;;;;11.57;6.63;;;;;;;;;;10424562;28;20226;-77
2023/10/13 01:03:08;;;;;;;9.98;4.90;;;;;;;;;;10406048;28;20222;-76
2023/10/13 01:08:10;;;;;;;21.33;8.20;;;;;;;;;;10386849;28;20223;-76
2023/10/13 01:13:11;;;;;;;7.75;5.65;;;;;;;;;;10414277;28;20218;-76
2023/10/13 01:18:13;;;;;;;8.70;5.65;;;;;;;;;;9876690;28;21994;-76
2023/10/13 01:23:28;;;;;;;6.63;5.80;;;;;;;;;;9745028;28;20258;-74
2023/10/13 01:28:29;;;;;;;7.72;5.72;;;;;;;;;;9734133;28;20235;-75
2023/10/13 01:33:32;;;;;;;10.68;6.38;;;;;;;;;;9777875;28;21523;-74
2023/10/13 01:38:33;;;;;;;12.68;6.55;;;;;;;;;;9729837;28;21669;-74
2023/10/13 01:43:34;;;;;;;8.60;6.20;;;;;;;;;;9728573;28;20220;-75
2023/10/13 01:48:39;;;;;;;8.75;6.68;;;;;;;;;;9777768;28;20234;-74
2023/10/13 01:53:41;;;;;;;13.82;6.38;;;;;;;;;;9750794;28;20370;-74
2023/10/13 01:58:42;;;;;;;14.25;7.78;;;;;;;;;;9780111;28;20253;-75
2023/10/13 02:03:47;;;;;;;10.48;7.55;;;;;;;;;;9725682;28;20257;-76
2023/10/13 02:08:51;;;;;;;12.35;7.43;;;;;;;;;;9783546;28;20233;-75
2023/10/13 02:13:53;;;;;;;15.52;7.70;;;;;;;;;;9755466;28;20215;-75
2023/10/13 02:18:55;;;;;;;19.70;8.32;;;;;;;;;;9738218;28;20221;-75
2023/10/13 02:24:05;;;;;;;10.20;8.00;;;;;;;;;;9715110;28;21549;-74
2023/10/13 02:29:12;;;;;;;14.48;7.82;;;;;;;;;;9735806;28;20231;-74
2023/10/13 02:34:13;;;;;;;12.90;7.72;;;;;;;;;;9748491;28;22362;-74
2023/10/13 02:39:24;;;;;;;11.48;7.60;;;;;;;;;;9754346;28;20901;-74
2023/10/13 02:44:31;;;;;;;10.40;7.38;;;;;;;;;;9741507;28;22629;-75
2023/10/13 02:49:33;;;;;;;12.23;7.63;;;;;;;;;;9794777;28;20349;-75
2023/10/13 02:54:39;;;;;;;9.50;7.15;;;;;;;;;;9754215;28;21565;-75
2023/10/13 02:59:50;;;;;;;9.30;7.30;;;;;;;;;;9788639;28;20222;-75
2023/10/13 03:04:59;;;;;;;10.10;7.43;;;;;;;;;;9985454;28;20302;-76
2023/10/13 03:10:09;;;;;;;9.95;7.40;;;;;;;;;;10431272;28;20203;-76
2023/10/13 03:15:17;;;;;;;7.43;6.47;;;;;;;;;;10412842;28;20207;-76
2023/10/13 03:20:23;;;;;;;12.27;6.85;;;;;;;;;;10436037;28;20203;-79
2023/10/13 03:25:29;;;;;;;10.20;6.90;;;;;;;;;;10405733;28;20626;-78
2023/10/13 03:30:38;;;;;;;10.63;6.78;;;;;;;;;;10401965;28;20257;-79
2023/10/13 03:35:42;;;;;;;7.10;6.10;;;;;;;;;;10425834;28;20632;-79
2023/10/13 03:40:56;;;;;;;10.35;6.82;;;;;;;;;;10393971;28;20728;-76
2023/10/13 03:46:08;;;;;;;8.30;5.95;;;;;;;;;;10379412;28;21201;-77
2023/10/13 03:51:15;;;;;;;9.45;6.18;;;;;;;;;;10412301;28;20213;-76
2023/10/13 03:56:26;;;;;;;9.50;6.55;;;;;;;;;;10434490;28;20222;-78
2023/10/13 04:17:12;;;;;;;8.80;6.28;;;;;;;;;;10427422;28;20944;-76
2023/10/13 04:22:20;;;;;;;9.50;6.43;;;;;;;;;;10408624;28;20704;-76
2023/10/13 04:33:35;;;;;;;8.30;6.40;;;;;;;;;;10386856;28;20218;-77
2023/10/13 04:38:35;;;;;;;9.10;6.38;;;;;;;;;;10428426;28;20206;-76
2023/10/13 04:43:55;;;;;;;7.85;6.68;;;;;;;;;;10393873;28;20704;-75
2023/10/13 04:49:00;;;;;;;10.80;6.22;;;;;;;;;;10424850;28;20218;-76
2023/10/13 04:54:10;;;;;;;7.35;6.20;;;;;;;;;;10398309;28;20202;-77
2023/10/13 04:59:18;;;;;;;8.50;5.45;;;;;;;;;;10409958;28;20297;-77
2023/10/13 05:04:30;;;;;;;5.82;5.32;;;;;;;;;;10420655;28;20229;-76
2023/10/13 06:28:40;;;;;;;8.50;5.55;;;;;;;;;;9824149;28;20212;-75
2023/10/13 06:29:30;;;;;;;10.50;5.57;;;;;;;;;;9700010;28;21494;-75
2023/10/13 06:34:37;;;;;;;11.13;6.03;;;;;;;;;;9736763;28;21857;-75
2023/10/13 06:39:38;;;;;;;7.45;6.35;;;;;;;;;;9711928;28;20794;-75
2023/10/13 06:44:40;;;;;;;5.60;5.10;;;;;;;;;;9694290;28;20643;-74
2023/10/13 06:49:43;;;;;;;9.93;5.28;;;;;;;;;;9700285;28;21296;-74
2023/10/13 06:54:44;;;;;;;5.20;4.70;;;;;;;;;;9715825;28;22024;-74
2023/10/13 06:59:46;;;;;;;6.55;4.95;;;;;;;;;;9782768;28;20229;-75
2023/10/13 07:04:47;;;;;;;6.15;5.10;;;;;;;;;;10412216;28;20236;-76
2023/10/13 07:09:58;;;;;;;6.03;5.47;;;;;;;;;;10427460;28;20854;-76
2023/10/13 07:15:10;;;;;;;8.27;5.60;;;;;;;;;;10406872;28;20594;-76
2023/10/13 07:20:15;;;;;;;5.35;4.88;;;;;;;;;;10424727;28;20314;-75
2023/10/13 07:25:23;;;;;;;9.25;5.53;;;;;;;;;;10425262;28;20301;-75
2023/10/13 07:30:28;;;;;;;8.52;5.20;;;;;;;;;;10429288;28;20221;-75
2023/10/13 07:35:31;;;;;;;5.85;5.18;;;;;;;;;;10410689;28;20669;-74
2023/10/13 07:45:40;;;;;;;5.88;5.30;;;;;;;;;;10423442;28;20766;-74
2023/10/13 07:50:41;;;;;;;5.43;4.97;;;;;;;;;;10431853;28;20243;-75
2023/10/13 07:55:42;;;;;;;7.03;5.43;;;;;;;;;;10383020;28;20245;-76
2023/10/13 08:16:44;;;;;;;4.60;3.95;;;;;;;;;;10401207;28;20301;-74
2023/10/13 08:21:51;;;;;;;4.68;4.07;;;;;;;;;;10427536;28;20222;-76
2023/10/13 08:32:23;;;;;;;5.03;4.57;;;;;;;;;;10424900;28;20314;-74
2023/10/13 08:47:53;;;;;;;4.70;4.30;;;;;;;;;;10424258;28;20226;-76
2023/10/13 08:52:56;;;;;;;5.47;4.18;;;;;;;;;;10424770;28;20280;-74
2023/10/13 08:58:13;;;;;;;4.32;4.00;;;;;;;;;;10406543;28;20256;-76
2023/10/13 09:03:29;;;;;;;4.85;4.03;;;;;;;;;;10393278;28;20279;-74
2023/10/13 09:13:52;;;;;;;5.07;4.40;;;;;;;;;;9895753;28;20885;-74
2023/10/13 09:18:53;;;;;;;6.40;3.83;;;;;;;;;;9695037;28;20611;-74
2023/10/13 09:24:15;;;;;;;6.93;4.60;;;;;;;;;;9710801;28;21505;-74
2023/10/13 09:29:21;;;;;;;4.68;3.90;;;;;;;;;;9731376;28;20709;-72
2023/10/13 09:34:23;;;;;;;4.03;3.83;;;;;;;;;;9704209;28;21891;-74
2023/10/13 09:44:58;;;;;;;4.05;3.45;;;;;;;;;;9687886;28;20714;-73
2023/10/13 09:50:05;;;;;;;4.18;3.75;;;;;;;;;;9769345;28;20268;-72
2023/10/13 09:55:18;;;;;;;4.10;3.67;;;;;;;;;;9751381;28;20291;-74
2023/10/13 10:00:56;;;;;;;4.80;4.03;;;;;;;;;;9753209;28;21076;-74
2023/10/13 10:06:03;;;;;;;3.60;3.30;;;;;;;;;;9709514;28;21601;-72
2023/10/13 10:11:08;;;;;;;4.10;3.30;;;;;;;;;;9705228;28;20977;-72
2023/10/13 10:16:14;;;;;;;3.63;3.33;;;;;;;;;;9703002;28;20827;-72
2023/10/13 10:21:16;;;;;;;5.40;3.13;;;;;;;;;;9716754;28;22282;-72
2023/10/13 10:26:20;;;;;;;2.97;2.78;;;;;;;;;;9706489;28;22366;-72
2023/10/13 10:31:34;;;;;;;4.28;2.65;;;;;;;;;;9722433;28;22161;-75
2023/10/13 10:36:36;;;;;;;2.63;2.15;;;;;;;;;;9695988;28;20689;-75
2023/10/13 10:41:54;;;;;;;3.78;2.63;;;;;;;;;;9686787;28;21217;-73
2023/10/13 10:46:58;;;;;;;3.03;2.20;;;;;;;;;;9748723;28;21014;-74
2023/10/13 10:52:04;;;;;;;1.90;1.80;;;;;;;;;;9748438;28;20214;-74
2023/10/13 10:57:11;;;;;;;5.55;2.25;;;;;;;;;;10021401;28;20657;-77
2023/10/13 11:02:18;;;;;;;2.33;2.00;;;;;;;;;;10436714;28;20211;-76
2023/10/13 11:07:27;;;;;;;2.33;2.13;;;;;;;;;;10435351;28;20309;-74
2023/10/13 11:12:28;;;;;;;3.67;1.83;;;;;;;;;;10430641;28;20276;-76
2023/10/13 11:17:42;;;;;;;4.55;2.15;;;;;;;;;;10418689;28;20226;-76
2023/10/13 11:22:50;;;;;;;2.10;1.90;;;;;;;;;;10417276;28;20219;-76
2023/10/13 11:33:05;;;;;;;1.95;1.80;;;;;;;;;;10418164;28;20226;-74
2023/10/13 11:38:13;;;;;;;3.33;1.75;;;;;;;;;;10434640;28;20751;-75
2023/10/13 11:43:15;;;;;;;5.72;1.85;;;;;;;;;;10433096;28;20223;-75
2023/10/13 11:48:16;;;;;;;4.68;1.80;;;;;;;;;;10436030;28;20679;-76
2023/10/13 11:53:18;;;;;;;3.97;1.85;;;;;;;;;;10437789;28;20688;-76
2023/10/13 11:58:19;;;;;;;3.28;1.67;;;;;;;;;;10433637;28;20230;-76
2023/10/13 12:08:49;;;;;;;3.22;1.75;;;;;;;;;;10429737;28;20218;-76
2023/10/13 12:13:50;;;;;;;5.63;2.08;;;;;;;;;;10432030;28;20224;-75
2023/10/13 12:18:53;;;;;;;2.65;2.00;;;;;;;;;;10433385;28;20334;-75
2023/10/13 12:23:54;;;;;;;4.63;2.10;;;;;;;;;;10423850;28;20203;-77
2023/10/13 12:29:06;;;;;;;5.75;1.90;;;;;;;;;;10418315;28;20263;-76
2023/10/13 12:34:14;;;;;;;2.45;1.77;;;;;;;;;;10406483;28;20218;-76
2023/10/13 12:50:08;;;;;;;1.92;1.75;;;;;;;;;;10425727;28;20219;-76
2023/10/13 12:55:13;;;;;;;2.22;1.95;;;;;;;;;;10415614;28;20218;-76
2023/10/13 13:00:23;;;;;;;4.38;2.10;;;;;;;;;;10409615;28;20764;-77
2023/10/13 13:05:28;;;;;;;5.57;2.20;;;;;;;;;;10407474;28;20206;-76
2023/10/13 13:10:35;;;;;;;3.30;1.80;;;;;;;;;;10407963;28;20638;-77
2023/10/13 13:15:36;;;;;;;4.60;2.42;;;;;;;;;;10418429;28;20700;-77
2023/10/13 13:20:39;;;;;;;4.63;1.73;;;;;;;;;;10169450;28;21176;-76
2023/10/13 13:25:42;;;;;;;6.20;2.70;;;;;;;;;;10051089;28;20278;-78
2023/10/13 13:30:43;;;;;;;3.85;2.08;;;;;;;;;;9954233;28;20893;-76
2023/10/13 13:35:48;;;;;;;1.98;1.70;;;;;;;;;;9879234;28;20214;-76
2023/10/13 13:40:53;;;;;;;2.42;1.77;;;;;;;;;;9873104;28;22366;-76
2023/10/13 13:46:00;;;;;;;7.10;2.28;;;;;;;;;;9854890;28;20227;-76
2023/10/13 13:51:14;;;;;;;2.20;1.70;;;;;;;;;;9882871;28;20350;-75
2023/10/13 13:56:19;;;;;;;2.28;1.88;;;;;;;;;;9836525;28;20333;-76
2023/10/13 14:01:25;;;;;;;4.43;2.20;;;;;;;;;;9882833;28;20226;-76
2023/10/13 14:06:29;;;;;;;3.03;2.47;;;;;;;;;;9861750;28;20249;-76
2023/10/13 14:16:46;;;;;;;3.15;1.63;;;;;;;;;;9855526;28;21541;-77
2023/10/13 14:21:53;;;;;;;3.95;1.90;;;;;;;;;;9840886;28;21123;-76
2023/10/13 14:26:55;;;;;;;4.10;2.65;;;;;;;;;;9817267;28;20594;-76
2023/10/13 14:31:56;;;;;;;1.80;1.70;;;;;;;;;;9817204;28;20216;-76
2023/10/13 14:36:57;;;;;;;3.55;1.80;;;;;;;;;;9782878;28;20250;-75
2023/10/13 14:42:00;;;;;;;4.70;2.40;;;;;;;;;;9771972;28;21162;-76
2023/10/13 14:47:01;;;;;;;3.53;2.47;;;;;;;;;;9821220;28;21165;-76
2023/10/13 14:52:02;;;;;;;7.38;2.60;;;;;;;;;;9908696;28;20713;-76
2023/10/13 14:57:03;;;;;;;2.40;2.30;;;;;;;;;;10380000;28;20241;-80
2023/10/13 15:02:05;;;;;;;4.45;2.85;;;;;;;;;;10397846;28;20907;-76
2023/10/13 15:07:06;;;;;;;7.32;2.42;;;;;;;;;;10362729;28;20595;-77
2023/10/13 15:12:10;;;;;;;3.17;2.17;;;;;;;;;;10376062;28;20223;-79
2023/10/13 15:17:15;;;;;;;3.42;2.40;;;;;;;;;;10395876;28;20218;-79
2023/10/13 15:22:21;;;;;;;2.53;2.20;;;;;;;;;;10391310;28;20222;-77
2023/10/13 15:27:23;;;;;;;3.22;2.03;;;;;;;;;;10409065;28;20226;-76
2023/10/13 15:37:57;;;;;;;8.27;2.53;;;;;;;;;;10382731;28;20209;-77
2023/10/13 15:42:59;;;;;;;2.45;2.22;;;;;;;;;;10409984;28;20211;-76
2023/10/13 15:48:04;;;;;;;5.15;2.53;;;;;;;;;;10430968;28;20241;-77
2023/10/13 15:53:06;;;;;;;5.25;2.38;;;;;;;;;;10399195;28;20735;-77
2023/10/13 15:58:07;;;;;;;2.35;2.10;;;;;;;;;;10416058;28;20589;-78
2023/10/13 16:03:11;;;;;;;3.03;2.40;;;;;;;;;;10427490;28;20237;-77
2023/10/13 16:08:12;;;;;;;7.40;2.45;;;;;;;;;;10420090;28;20310;-78
2023/10/13 16:13:18;;;;;;;8.27;2.53;;;;;;;;;;10420753;28;20224;-78
2023/10/13 16:18:21;;;;;;;2.67;2.47;;;;;;;;;;10420935;28;20223;-78
2023/10/13 16:23:23;;;;;;;10.98;2.90;;;;;;;;;;10425419;28;20245;-78
2023/10/13 16:28:24;;;;;;;3.75;2.47;;;;;;;;;;10423158;28;20222;-79
2023/10/13 16:33:28;;;;;;;6.95;2.97;;;;;;;;;;10420675;28;20844;-78
2023/10/13 16:38:29;;;;;;;2.85;2.70;;;;;;;;;;10403335;28;20253;-78
2023/10/13 16:43:33;;;;;;;3.85;2.58;;;;;;;;;;10432567;28;20222;-79
2023/10/13 16:48:34;;;;;;;7.25;2.55;;;;;;;;;;10435507;28;20227;-81
2023/10/13 16:53:36;;;;;;;2.92;2.83;;;;;;;;;;10398812;28;20214;-77
2023/10/13 16:58:37;;;;;;;3.10;2.40;;;;;;;;;;10369356;28;20690;-79
2023/10/13 17:03:44;;;;;;;2.65;2.47;;;;;;;;;;10414471;28;20226;-76
2023/10/13 17:08:47;;;;;;;3.05;2.25;;;;;;;;;;10417962;28;20214;-77
2023/10/13 17:13:48;;;;;;;5.55;2.35;;;;;;;;;;10225942;28;20222;-78
2023/10/13 17:18:50;;;;;;;2.33;2.22;;;;;;;;;;9844708;28;22289;-78
2023/10/13 17:23:52;;;;;;;8.15;2.72;;;;;;;;;;9802897;28;20242;-78
2023/10/13 17:28:55;;;;;;;4.30;2.30;;;;;;;;;;9724790;28;20226;-80
2023/10/13 17:33:58;;;;;;;5.97;2.75;;;;;;;;;;9788490;28;20370;-77
2023/10/13 17:39:00;;;;;;;2.53;2.33;;;;;;;;;;9751718;28;21551;-76
2023/10/13 17:44:02;;;;;;;4.90;2.60;;;;;;;;;;9731851;28;20260;-77
2023/10/13 17:49:03;;;;;;;5.25;2.58;;;;;;;;;;9717957;28;20226;-75
2023/10/13 17:54:05;;;;;;;2.80;2.70;;;;;;;;;;9764640;28;20219;-75
2023/10/13 17:59:07;;;;;;;2.90;2.50;;;;;;;;;;9774889;28;20223;-78
2023/10/13 18:04:09;;;;;;;3.60;2.22;;;;;;;;;;9714558;28;21806;-79
2023/10/13 18:09:11;;;;;;;3.78;3.35;;;;;;;;;;9745129;28;21779;-76
2023/10/13 18:14:12;;;;;;;3.85;2.97;;;;;;;;;;9763248;28;21845;-78
2023/10/13 18:19:14;;;;;;;7.88;3.00;;;;;;;;;;9744957;28;20231;-77
2023/10/13 18:24:15;;;;;;;3.83;3.42;;;;;;;;;;9760554;28;20223;-77
2023/10/13 18:29:16;;;;;;;4.20;3.90;;;;;;;;;;9778248;28;20262;-77
2023/10/13 18:34:18;;;;;;;2.63;2.53;;;;;;;;;;9770948;28;21592;-77
2023/10/13 18:39:19;;;;;;;3.42;2.70;;;;;;;;;;9784041;28;20349;-78
2023/10/13 18:44:22;;;;;;;4.30;2.67;;;;;;;;;;9747020;28;21498;-76
2023/10/13 18:49:24;;;;;;;5.10;2.67;;;;;;;;;;10070127;28;20225;-80
2023/10/13 18:54:25;;;;;;;6.10;2.38;;;;;;;;;;10382275;28;20816;-78
2023/10/13 18:59:27;;;;;;;4.30;2.40;;;;;;;;;;10397294;28;20219;-80
2023/10/13 19:04:28;;;;;;;2.22;1.70;;;;;;;;;;10374954;28;20306;-81
2023/10/13 19:09:29;;;;;;;2.03;1.88;;;;;;;;;;10375650;28;20692;-81
2023/10/13 19:14:32;;;;;;;3.33;2.35;;;;;;;;;;10397037;28;20214;-79
2023/10/13 19:19:34;;;;;;;2.40;2.30;;;;;;;;;;10391642;28;20222;-81
2023/10/13 19:24:35;;;;;;;3.50;2.28;;;;;;;;;;10386282;28;21684;-79
2023/10/13 19:29:36;;;;;;;4.82;2.35;;;;;;;;;;10409562;28;20810;-79
2023/10/13 19:34:41;;;;;;;2.60;2.42;;;;;;;;;;10432151;28;20254;-80
2023/10/13 19:39:42;;;;;;;4.03;2.60;;;;;;;;;;10393867;28;20882;-78
2023/10/13 19:44:44;;;;;;;2.67;2.17;;;;;;;;;;10416806;28;20222;-79
2023/10/13 19:49:46;;;;;;;4.03;1.95;;;;;;;;;;10411346;28;20215;-79
2023/10/13 19:54:46;;;;;;;5.70;2.20;;;;;;;;;;10421042;28;20249;-79
2023/10/13 19:59:47;;;;;;;2.17;1.98;;;;;;;;;;10416962;28;20967;-83
2023/10/13 20:04:52;;;;;;;2.42;2.22;;;;;;;;;;10421563;28;20214;-78
2023/10/13 20:09:54;;;;;;;7.20;2.63;;;;;;;;;;10413598;28;20229;-79
2023/10/13 20:14:55;;;;;;;2.47;2.20;;;;;;;;;;10403140;28;20215;-80
2023/10/13 20:19:59;;;;;;;2.20;2.10;;;;;;;;;;10441876;28;20638;-79
2023/10/13 20:25:00;;;;;;;3.63;2.28;;;;;;;;;;10424983;28;20638;-79
2023/10/13 20:30:08;;;;;;;2.33;2.13;;;;;;;;;;10430042;28;20217;-80
2023/10/13 20:35:09;;;;;;;3.25;2.40;;;;;;;;;;10397816;28;20207;-80
2023/10/13 20:40:19;;;;;;;2.08;1.95;;;;;;;;;;10436367;28;20747;-78
2023/10/13 20:45:23;;;;;;;2.25;2.05;;;;;;;;;;10423047;28;20187;-79
2023/10/13 20:50:24;;;;;;;2.30;2.20;;;;;;;;;;10418687;28;20226;-79
2023/10/13 20:55:25;;;;;;;2.50;2.15;;;;;;;;;;10399680;28;20419;-79
2023/10/13 21:00:30;;;;;;;3.60;2.33;;;;;;;;;;10423634;28;20275;-79
2023/10/13 21:05:31;;;;;;;7.45;2.10;;;;;;;;;;10420801;28;20215;-79
2023/10/13 21:10:35;;;;;;;2.22;2.00;;;;;;;;;;10416702;28;20270;-78
2023/10/13 21:15:39;;;;;;;2.38;2.28;;;;;;;;;;10349630;28;21241;-78
2023/10/13 21:20:40;;;;;;;2.45;2.25;;;;;;;;;;9850556;28;20250;-77
2023/10/13 21:25:41;;;;;;;3.38;2.22;;;;;;;;;;9805109;28;21484;-79
2023/10/13 21:30:43;;;;;;;2.90;2.10;;;;;;;;;;9837895;28;20353;-78
2023/10/13 21:35:44;;;;;;;3.72;2.40;;;;;;;;;;9887629;28;20214;-79
2023/10/13 21:40:45;;;;;;;6.90;1.92;;;;;;;;;;9853264;28;20360;-79
2023/10/13 21:45:46;;;;;;;3.28;2.30;;;;;;;;;;9829302;28;20227;-78
2023/10/13 21:50:47;;;;;;;2.20;2.10;;;;;;;;;;9845944;28;22139;-77
2023/10/13 21:55:49;;;;;;;2.58;1.83;;;;;;;;;;9781709;28;20282;-77
2023/10/13 22:00:56;;;;;;;2.88;2.53;;;;;;;;;;9774675;28;20223;-78
2023/10/13 22:06:00;;;;;;;3.72;2.00;;;;;;;;;;9749344;28;20226;-79
2023/10/13 22:11:02;;;;;;;3.83;2.40;;;;;;;;;;9753548;28;20365;-78
2023/10/13 22:16:10;;;;;;;2.63;2.42;;;;;;;;;;9798519;28;21562;-77
2023/10/13 22:21:12;;;;;;;2.63;2.42;;;;;;;;;;9783711;28;20250;-77
2023/10/13 22:26:14;;;;;;;2.95;2.38;;;;;;;;;;9783836;28;22427;-76
2023/10/13 22:31:16;;;;;;;6.43;2.30;;;;;;;;;;9733078;28;20265;-77
2023/10/13 22:36:24;;;;;;;3.08;2.03;;;;;;;;;;9745356;28;20223;-76
2023/10/13 22:41:26;;;;;;;2.55;2.33;;;;;;;;;;9757238;28;21619;-77
2023/10/13 22:46:28;;;;;;;3.55;1.95;;;;;;;;;;10185471;28;20280;-77
2023/10/13 22:51:30;;;;;;;1.67;1.65;;;;;;;;;;10401903;28;20234;-77
2023/10/13 22:56:32;;;;;;;1.90;1.80;;;;;;;;;;10405799;28;20781;-77
2023/10/13 23:01:42;;;;;;;3.72;1.70;;;;;;;;;;10396506;28;20273;-78
2023/10/13 23:06:49;;;;;;;3.85;2.50;;;;;;;;;;10396708;28;20588;-78
2023/10/13 23:11:56;;;;;;;2.03;1.83;;;;;;;;;;10402545;28;20210;-79
2023/10/13 23:16:57;;;;;;;2.33;1.50;;;;;;;;;;10410866;28;20211;-77
2023/10/13 23:21:59;;;;;;;1.90;1.77;;;;;;;;;;10435148;28;20222;-77
2023/10/13 23:27:00;;;;;;;3.80;1.42;;;;;;;;;;10416892;28;20599;-78
2023/10/13 23:32:01;;;;;;;3.75;1.60;;;;;;;;;;10428797;28;20241;-79
2023/10/13 23:37:03;;;;;;;2.47;1.40;;;;;;;;;;10410153;28;20688;-77
2023/10/13 23:42:07;;;;;;;1.77;1.67;;;;;;;;;;10428801;28;20221;-78
2023/10/13 23:47:10;;;;;;;8.88;1.73;;;;;;;;;;10402769;28;20271;-76
2023/10/13 23:52:11;;;;;;;2.40;2.03;;;;;;;;;;10407032;28;20230;-79
2023/10/13 23:57:13;;;;;;;1.77;1.67;;;;;;;;;;10411095;28;20207;-77
